Sunday, January 20, 2019, 7:39 AM GMT
Back to Local

CYQB, Quebec, Que

Location: , , Canada Lat: 46.8
Local Time: 7:39 AM GMT ( 7:39 GMT) Lon: -71.383
Time Zone: GMT Elev: 229 ft

Show me the last for .
Show Decoded

2019-01-20 07:22 METAR CYQB 200722Z 06019G28KT 1 1/2SM -SN DRSN OVC022 M20/M23 A3026 RMK BLSN4SC4
                 SLP259 =
2019-01-20 07:00 METAR CYQB 200700Z 06019G28KT 3SM -SN DRSN OVC045 M20/M23 A3027 RMK BLSN4SC4
                 SLP261 =
2019-01-20 06:45 METAR CYQB 200645Z 06017G24KT 3SM -SN DRSN OVC033 M20/M23 A3027 RMK SC8 PRESFR
                 SLP262 =
2019-01-20 06:00 METAR CYQB 200600Z 06019G28KT 1 1/2SM -SN DRSN OVC022 M20/M23 A3029 RMK SN4SC4
                 SLP268 =
2019-01-20 05:41 METAR CYQB 200541Z 07018G25KT 2SM -SN DRSN BKN029 OVC036 M20/M23 A3030 RMK
                 SN4SC2SC2 SLP270 =
2019-01-20 05:00 METAR CYQB 200500Z 06016G24KT 8SM -SN FEW011 SCT018 BKN150 OVC220 M20/M23 A3032
                 RMK SC1SC3AC2CS3 SC TR /S02/ SLP279 =
2019-01-20 04:00 METAR CYQB 200400Z 06010KT 15SM SCT030 BKN220 M20/M23 A3035 RMK SC3CS4 SLP289 =
2019-01-20 03:00 METAR CYQB 200300Z 05008KT 15SM -SN FEW030 SCT052 BKN230 M22/M25 A3037 RMK
                 SC1SC3CS2 SLP295 =
2019-01-20 02:00 METAR CYQB 200200Z 05009KT 15SM FEW030 SCT060 BKN120 BKN230 M22/M26 A3038 RMK
                 SC1SC2AC2CI1 SLP300 =
2019-01-20 01:00 METAR CYQB 200100Z 04005KT 15SM BKN100 M22/M25 A3040 RMK AC7 SLP307 =
2019-01-20 00:00 METAR CYQB 200000Z 02003KT 15SM FEW010 OVC090 M22/M26 A3043 RMK FU1AC7 SLP316 =
2019-01-19 23:00 METAR CYQB 192300Z 33002KT 15SM OVC110 M22/M27 A3044 RMK AC8 SLP320 =
2019-01-19 22:00 METAR CYQB 192200Z 28002KT 15SM OVC100 M23/M26 A3045 RMK AS8 SLP321 =
2019-01-19 21:00 METAR CYQB 192100Z VRB02KT 30SM BKN100 OVC200 M22/M26 A3043 RMK AS6CS2 SLP317 =
2019-01-19 20:00 METAR CYQB 192000Z 23006KT 30SM FEW010 BKN120 OVC210 M23/M27 A3043 RMK SF1AS5CS3
                 SF TR SLP315 =
2019-01-19 19:00 METAR CYQB 191900Z 22008KT 30SM FEW011 BKN130 OVC210 M23/M27 A3042 RMK SF1AS5CS3
                 SF TR SLP310 =
2019-01-19 18:00 METAR CYQB 191800Z 22010KT 30SM FEW011 OVC210 M23/M29 A3043 RMK SF1CS8 SF TR
                 SLP314 =
2019-01-19 17:00 METAR CYQB 191700Z 22006KT 30SM FEW010 OVC210 M23/M30 A3046 RMK SF1CS8 SF TR
                 CONTRAILS SLP326 =
2019-01-19 16:00 METAR CYQB 191600Z 22008KT 30SM BKN230 M24/M31 A3048 RMK CI5 SLP333 =
2019-01-19 15:00 METAR CYQB 191500Z 21005KT 30SM SCT200 M25/M31 A3048 RMK CI3 SLP332 =
2019-01-19 14:00 METAR CYQB 191400Z 00000KT 30SM SCT200 M26/M32 A3045 RMK CI3 SLP323 =
2019-01-19 13:00 METAR CYQB 191300Z 32006KT 280V350 30SM SCT200 M26/M33 A3042 RMK CI3 SLP313 =
2019-01-19 12:00 METAR CYQB 191200Z 28004KT 30SM FEW120 SCT200 M26/M32 A3040 RMK AC1CI2 SLP304 =
2019-01-19 11:00 METAR CYQB 191100Z 29006KT 260V340 15SM SKC M25/M32 A3038 RMK SLP297 =
2019-01-19 10:00 METAR CYQB 191000Z 24003KT 220V300 15SM SKC M26/M31 A3037 RMK SLP293 =
2019-01-19 09:00 METAR CYQB 190900Z 31004KT 15SM SKC M23/M30 A3033 RMK SLP281 =
2019-01-19 08:00 METAR CYQB 190800Z 29006KT 15SM SKC M22/M29 A3030 RMK SLP268 =

Support USWX by starting your Amazon purchase here.